createdAt,value
2022-11-22T00:00:18.215Z,99353.53
2022-11-22T00:02:44.938Z,99345.25
2022-11-22T00:05:11.863Z,99343.06
2022-11-22T00:07:38.831Z,99329.88
2022-11-22T00:10:07.017Z,99332.41
2022-11-22T00:12:33.558Z,99334.53
2022-11-22T00:15:00.293Z,99333.03
2022-11-22T00:17:26.711Z,99324.84
2022-11-22T00:19:53.199Z,99324.78
2022-11-22T00:22:19.604Z,99324.59
2022-11-22T00:24:46.364Z,99319.56
2022-11-22T00:27:13.077Z,99324.91
2022-11-22T00:29:39.487Z,99319.81
2022-11-22T00:32:05.894Z,99306.94
2022-11-22T00:34:32.289Z,99305.31
2022-11-22T00:36:58.737Z,99313.44
2022-11-22T00:39:25.117Z,99312.06
2022-11-22T00:41:51.785Z,99312.00
2022-11-22T00:44:18.195Z,99306.47
2022-11-22T00:46:44.617Z,99300.53
2022-11-22T00:49:11.059Z,99307.38
2022-11-22T00:51:37.485Z,99301.72
2022-11-22T00:54:04.096Z,99297.75
2022-11-22T00:56:32.031Z,99306.38
2022-11-22T00:58:58.789Z,99311.78
2022-11-22T01:01:25.802Z,99321.00
2022-11-22T01:03:52.289Z,99314.06
2022-11-22T01:06:19.124Z,99303.91
2022-11-22T01:08:45.642Z,99311.06
2022-11-22T01:11:12.963Z,99310.28
2022-11-22T01:13:39.378Z,99309.84
2022-11-22T01:16:08.554Z,99289.81
2022-11-22T01:18:35.079Z,99299.50
2022-11-22T01:21:02.069Z,99279.47
2022-11-22T01:23:28.521Z,99291.88
2022-11-22T01:25:54.963Z,99285.75
2022-11-22T01:28:21.403Z,99274.88
2022-11-22T01:30:51.020Z,99284.44
2022-11-22T01:33:17.624Z,99283.56
2022-11-22T01:35:44.138Z,99273.22
2022-11-22T01:38:10.570Z,99269.78
2022-11-22T01:40:37.281Z,99279.16
2022-11-22T01:43:16.954Z,99283.41
2022-11-22T01:45:47.431Z,99279.09
2022-11-22T01:48:22.720Z,99265.09
2022-11-22T01:50:53.777Z,99257.53
2022-11-22T01:53:25.392Z,99257.84
2022-11-22T01:55:53.329Z,99259.09
2022-11-22T01:58:21.470Z,99261.81
2022-11-22T02:00:48.956Z,99272.66
2022-11-22T02:03:18.026Z,99265.78
2022-11-22T02:05:44.848Z,99265.41
2022-11-22T02:08:26.434Z,99270.75
2022-11-22T02:10:56.211Z,99260.56
2022-11-22T02:13:23.699Z,99263.34
2022-11-22T02:15:52.462Z,99251.06
2022-11-22T02:18:19.499Z,99246.09
2022-11-22T02:20:46.078Z,99251.63
2022-11-22T02:23:44.771Z,99255.06
2022-11-22T02:26:12.129Z,99238.94
2022-11-22T02:28:39.725Z,99240.44
2022-11-22T02:31:06.449Z,99239.31
2022-11-22T02:33:33.186Z,99239.06
2022-11-22T02:35:59.695Z,99234.41
2022-11-22T02:38:29.432Z,99235.31
2022-11-22T02:41:02.042Z,99239.19
2022-11-22T02:43:51.562Z,99223.13
2022-11-22T02:46:22.584Z,99216.19
2022-11-22T02:48:49.582Z,99225.91
2022-11-22T02:51:19.581Z,99230.75
2022-11-22T02:53:48.269Z,99231.81
2022-11-22T02:56:15.627Z,99221.00
2022-11-22T02:58:43.473Z,99209.88
2022-11-22T03:01:10.840Z,99205.69
2022-11-22T03:03:37.562Z,99203.56
2022-11-22T03:06:04.235Z,99197.97
2022-11-22T03:08:30.910Z,99195.53
2022-11-22T03:10:58.916Z,99189.59
2022-11-22T03:13:26.259Z,99190.41
2022-11-22T03:15:52.927Z,99182.53
2022-11-22T03:18:19.423Z,99188.56
2022-11-22T03:20:45.830Z,99191.75
2022-11-22T03:23:12.229Z,99184.84
2022-11-22T03:25:39.084Z,99182.78
2022-11-22T03:28:05.586Z,99187.88
2022-11-22T03:30:32.265Z,99183.63
2022-11-22T03:32:58.701Z,99183.00
2022-11-22T03:35:25.380Z,99178.84
2022-11-22T03:37:51.813Z,99180.25
2022-11-22T03:40:18.291Z,99176.09
2022-11-22T03:42:44.697Z,99183.63
2022-11-22T03:45:11.125Z,99173.22
2022-11-22T03:47:37.558Z,99164.56
2022-11-22T03:50:04.923Z,99173.81
2022-11-22T03:52:31.327Z,99164.44
2022-11-22T03:54:57.710Z,99165.75
2022-11-22T03:57:24.133Z,99156.84
2022-11-22T03:59:50.528Z,99152.72
2022-11-22T04:02:17.102Z,99141.00
2022-11-22T04:04:43.535Z,99151.25
2022-11-22T04:07:10.025Z,99152.31
2022-11-22T04:09:36.541Z,99142.78
2022-11-22T04:12:03.148Z,99146.69
2022-11-22T04:14:48.114Z,99157.78
2022-11-22T04:17:34.687Z,99148.81
2022-11-22T04:20:19.752Z,99141.19
2022-11-22T04:22:55.261Z,99147.50
2022-11-22T04:25:21.666Z,99144.25
2022-11-22T04:27:48.049Z,99156.88
2022-11-22T04:30:19.031Z,99158.50
2022-11-22T04:32:47.341Z,99165.94
2022-11-22T04:35:18.518Z,99143.25
2022-11-22T04:37:51.506Z,99144.75
2022-11-22T04:40:17.985Z,99160.91
2022-11-22T04:43:02.923Z,99159.75
2022-11-22T04:45:29.481Z,99154.91
2022-11-22T04:47:58.979Z,99156.66
2022-11-22T04:50:45.610Z,99145.66
2022-11-22T04:53:12.587Z,99153.41
2022-11-22T04:55:39.378Z,99155.03
2022-11-22T04:58:05.841Z,99164.28
2022-11-22T05:00:32.719Z,99164.66
2022-11-22T05:02:59.497Z,99160.19
2022-11-22T05:05:27.229Z,99148.34
2022-11-22T05:07:53.715Z,99152.31
2022-11-22T05:10:26.046Z,99153.47
2022-11-22T05:12:54.636Z,99155.28
2022-11-22T05:15:21.140Z,99151.34
2022-11-22T05:17:47.590Z,99153.75
2022-11-22T05:20:14.412Z,99161.41
2022-11-22T05:22:59.293Z,99167.28
2022-11-22T05:25:25.997Z,99166.63
2022-11-22T05:27:55.483Z,99176.78
2022-11-22T05:30:22.297Z,99156.94
2022-11-22T05:32:48.754Z,99151.75
2022-11-22T05:35:15.227Z,99147.75
2022-11-22T05:37:41.647Z,99152.03
2022-11-22T05:40:08.796Z,99156.59
2022-11-22T05:42:35.736Z,99161.03
2022-11-22T05:45:02.147Z,99160.50
2022-11-22T05:47:28.735Z,99162.28
2022-11-22T05:49:55.185Z,99159.44
2022-11-22T05:52:21.570Z,99155.38
2022-11-22T05:54:48.037Z,99164.59
2022-11-22T05:57:14.471Z,99168.59
2022-11-22T05:59:44.141Z,99167.22
2022-11-22T06:02:11.051Z,99165.41
2022-11-22T06:04:37.531Z,99159.81
2022-11-22T06:07:09.559Z,99165.59
2022-11-22T06:09:36.407Z,99161.72
2022-11-22T06:12:02.892Z,99165.59
2022-11-22T06:14:29.297Z,99167.09
2022-11-22T06:16:55.738Z,99160.47
2022-11-22T06:19:22.170Z,99160.47
2022-11-22T06:21:48.599Z,99158.00
2022-11-22T06:24:15.063Z,99162.59
2022-11-22T06:26:41.458Z,99156.94
2022-11-22T06:29:07.920Z,99153.72
2022-11-22T06:31:34.418Z,99152.03
2022-11-22T06:34:01.045Z,99163.72
2022-11-22T06:36:30.298Z,99157.50
2022-11-22T06:38:57.586Z,99160.75
2022-11-22T06:41:27.563Z,99165.84
2022-11-22T06:43:56.190Z,99164.97
2022-11-22T06:46:24.517Z,99160.41
2022-11-22T06:48:51.367Z,99150.88
2022-11-22T06:51:23.038Z,99167.09
2022-11-22T06:53:50.813Z,99157.72
2022-11-22T06:56:32.095Z,99163.44
2022-11-22T06:59:02.604Z,99160.47
2022-11-22T07:01:30.311Z,99154.91
2022-11-22T07:03:58.522Z,99161.72
2022-11-22T07:06:28.475Z,99165.81
2022-11-22T07:08:55.044Z,99166.66
2022-11-22T07:11:23.994Z,99164.56
2022-11-22T07:13:51.597Z,99159.97
2022-11-22T07:16:20.160Z,99162.06
2022-11-22T07:18:47.814Z,99152.28
2022-11-22T07:21:18.781Z,99161.03
2022-11-22T07:23:47.122Z,99171.97
2022-11-22T07:26:13.935Z,99169.34
2022-11-22T07:28:41.081Z,99169.00
2022-11-22T07:31:09.569Z,99172.16
2022-11-22T07:33:36.516Z,99179.22
2022-11-22T07:36:08.154Z,99173.25
2022-11-22T07:38:34.825Z,99179.41
2022-11-22T07:41:02.041Z,99182.78
2022-11-22T07:43:29.252Z,99193.47
2022-11-22T07:46:03.782Z,99192.78
2022-11-22T07:48:30.279Z,99192.78
2022-11-22T07:50:56.838Z,99191.63
2022-11-22T07:53:23.377Z,99190.22
2022-11-22T07:55:49.985Z,99176.09
2022-11-22T07:58:16.380Z,99165.06
2022-11-22T08:00:42.796Z,99170.28
2022-11-22T08:03:09.217Z,99173.94
2022-11-22T08:05:35.724Z,99170.69
2022-11-22T08:08:02.175Z,99162.94
2022-11-22T08:10:28.572Z,99158.19
2022-11-22T08:12:58.853Z,99159.84
2022-11-22T08:15:25.416Z,99151.41
2022-11-22T08:17:51.884Z,99152.41
2022-11-22T08:20:18.438Z,99142.06
2022-11-22T08:22:44.856Z,99150.50
2022-11-22T08:25:14.213Z,99144.19
2022-11-22T08:27:42.301Z,99146.75
2022-11-22T08:30:10.647Z,99150.66
2022-11-22T08:32:37.194Z,99162.25
2022-11-22T08:35:04.529Z,99166.81
2022-11-22T08:37:30.998Z,99164.22
2022-11-22T08:39:57.477Z,99166.28
2022-11-22T08:42:23.923Z,99163.44
2022-11-22T08:44:50.500Z,99155.97
2022-11-22T08:47:17.369Z,99158.81
2022-11-22T08:49:43.822Z,99156.19
2022-11-22T08:52:10.503Z,99158.66
2022-11-22T08:54:38.137Z,99169.97
2022-11-22T08:57:05.206Z,99178.19
2022-11-22T08:59:32.113Z,99183.19
2022-11-22T09:01:58.985Z,99189.25
2022-11-22T09:04:25.443Z,99192.72
2022-11-22T09:09:38.587Z,99196.88
2022-11-22T09:12:05.619Z,99201.56
2022-11-22T09:14:32.027Z,99201.84
2022-11-22T09:16:58.443Z,99207.97
2022-11-22T09:19:24.972Z,99201.84
2022-11-22T09:21:51.368Z,99200.66
2022-11-22T09:24:17.888Z,99205.78
2022-11-22T09:26:44.398Z,99196.41
2022-11-22T09:29:10.790Z,99200.03
2022-11-22T09:31:37.385Z,99203.00
2022-11-22T09:34:04.057Z,99211.63
2022-11-22T09:36:31.014Z,99205.88
2022-11-22T09:38:57.652Z,99209.88
2022-11-22T09:41:39.421Z,99194.19
2022-11-22T09:44:32.001Z,99209.16
2022-11-22T09:47:19.618Z,99218.84
2022-11-22T09:50:11.016Z,99210.59
2022-11-22T09:52:48.615Z,99213.31
2022-11-22T09:55:35.196Z,99201.41
2022-11-22T09:58:26.703Z,99204.44
2022-11-22T10:00:57.428Z,99207.38
2022-11-22T10:04:00.507Z,99207.84
2022-11-22T10:06:32.622Z,99198.31
2022-11-22T10:09:05.426Z,99204.94
2022-11-22T10:11:43.098Z,99192.72
2022-11-22T10:14:24.313Z,99192.78
2022-11-22T10:16:57.590Z,99199.84
2022-11-22T10:19:48.234Z,99191.50
2022-11-22T10:22:15.306Z,99203.50
2022-11-22T10:24:43.200Z,99203.72
2022-11-22T10:27:13.960Z,99208.81
2022-11-22T10:29:44.451Z,99214.16
2022-11-22T10:32:10.790Z,99201.56
2022-11-22T10:35:09.032Z,99196.28
2022-11-22T10:38:04.690Z,99215.19
2022-11-22T10:40:58.919Z,99213.84
2022-11-22T10:43:49.022Z,99218.63
2022-11-22T10:46:23.046Z,99214.34
2022-11-22T10:49:03.253Z,99222.50
2022-11-22T10:51:49.002Z,99233.22
2022-11-22T10:54:42.131Z,99228.47
2022-11-22T10:57:23.636Z,99214.06
2022-11-22T11:00:18.200Z,99227.69
2022-11-22T11:02:57.932Z,99222.91
2022-11-22T11:05:35.078Z,99222.31
2022-11-22T11:08:15.470Z,99220.94
2022-11-22T11:10:49.932Z,99213.63
2022-11-22T11:13:26.739Z,99216.72
2022-11-22T11:16:01.706Z,99222.47
2022-11-22T11:18:40.517Z,99216.78
2022-11-22T11:21:09.920Z,99226.28
2022-11-22T11:23:36.446Z,99232.00
2022-11-22T11:26:20.804Z,99234.75
2022-11-22T11:28:47.626Z,99234.75
2022-11-22T11:31:15.719Z,99237.63
2022-11-22T11:33:42.137Z,99226.91
2022-11-22T11:36:23.694Z,99226.06
2022-11-22T11:38:54.823Z,99223.44
2022-11-22T11:41:24.250Z,99234.59
2022-11-22T11:43:56.466Z,99246.63
2022-11-22T11:46:28.412Z,99225.84
2022-11-22T11:49:18.559Z,99234.00
2022-11-22T11:51:54.019Z,99233.69
2022-11-22T11:54:23.561Z,99241.63
2022-11-22T11:56:59.329Z,99238.22
2022-11-22T11:59:37.523Z,99246.72
2022-11-22T12:02:23.000Z,99248.81
2022-11-22T12:04:54.620Z,99249.88
2022-11-22T12:07:27.143Z,99251.97
2022-11-22T12:09:55.394Z,99247.38
2022-11-22T12:12:27.990Z,99245.06
2022-11-22T12:15:11.218Z,99233.56
2022-11-22T12:17:48.810Z,99245.69
2022-11-22T12:20:38.803Z,99241.44
2022-11-22T12:23:24.325Z,99240.47
2022-11-22T12:25:55.198Z,99254.22
2022-11-22T12:28:24.088Z,99237.06
2022-11-22T12:31:12.022Z,99243.69
2022-11-22T12:33:43.960Z,99250.03
2022-11-22T12:36:34.238Z,99247.41
2022-11-22T12:39:04.343Z,99256.75
2022-11-22T12:41:33.405Z,99255.38
2022-11-22T12:44:02.723Z,99252.69
2022-11-22T12:46:40.393Z,99251.66
2022-11-22T12:49:30.453Z,99241.38
2022-11-22T12:52:09.430Z,99236.94
2022-11-22T12:54:55.834Z,99237.66
2022-11-22T12:57:32.948Z,99235.31
2022-11-22T13:00:04.529Z,99236.66
2022-11-22T13:02:59.317Z,99218.28
2022-11-22T13:05:48.330Z,99223.34
2022-11-22T13:08:31.250Z,99231.69
2022-11-22T13:11:23.982Z,99232.72
2022-11-22T13:13:58.869Z,99234.97
2022-11-22T13:16:25.342Z,99233.25
2022-11-22T13:18:58.389Z,99235.75
2022-11-22T13:22:02.297Z,99235.47
2022-11-22T13:24:45.963Z,99237.38
2022-11-22T13:27:20.517Z,99235.09
2022-11-22T13:29:47.806Z,99237.38
2022-11-22T13:32:20.508Z,99243.50
2022-11-22T13:35:05.767Z,99237.44
2022-11-22T13:37:36.902Z,99227.91
2022-11-22T13:40:16.926Z,99225.69
2022-11-22T13:42:43.853Z,99225.03
2022-11-22T13:45:21.292Z,99227.47
2022-11-22T13:47:48.397Z,99229.72
2022-11-22T13:50:36.713Z,99239.69
2022-11-22T13:53:18.474Z,99244.09
2022-11-22T13:55:45.796Z,99244.22
2022-11-22T13:58:24.392Z,99231.41
2022-11-22T14:00:57.395Z,99231.66
2022-11-22T14:03:34.521Z,99229.22
2022-11-22T14:06:16.020Z,99231.34
2022-11-22T14:08:43.853Z,99228.91
2022-11-22T14:11:29.367Z,99240.88
2022-11-22T14:13:58.721Z,99249.19
2022-11-22T14:16:40.195Z,99249.19
2022-11-22T14:19:23.387Z,99252.41
2022-11-22T14:22:00.987Z,99265.28
2022-11-22T14:24:27.386Z,99271.97
2022-11-22T14:27:10.553Z,99285.66
2022-11-22T14:30:02.484Z,99284.09
2022-11-22T14:33:24.676Z,99285.59
2022-11-22T14:36:11.394Z,99291.50
2022-11-22T14:38:42.387Z,99289.38
2022-11-22T14:41:30.895Z,99293.81
2022-11-22T14:44:04.050Z,99287.38
2022-11-22T14:46:54.383Z,99286.44
2022-11-22T14:49:46.410Z,99286.16
2022-11-22T14:52:25.184Z,99283.66
2022-11-22T14:54:58.505Z,99286.28
2022-11-22T14:57:27.706Z,99282.06
2022-11-22T15:00:07.390Z,99264.75
2022-11-22T15:03:10.878Z,99280.75
2022-11-22T15:09:20.792Z,99286.13
2022-11-22T15:09:48.694Z,99280.94
2022-11-22T15:12:36.078Z,99286.06
2022-11-22T15:59:42.254Z,99291.84
2022-11-22T16:02:19.416Z,99290.16
2022-11-22T16:06:03.531Z,99299.22
2022-11-22T16:07:47.176Z,99294.75
2022-11-22T16:10:23.355Z,99288.59
2022-11-22T16:12:51.402Z,99298.13
2022-11-22T16:15:27.097Z,99284.91
2022-11-22T16:18:06.138Z,99290.72
2022-11-22T16:20:34.292Z,99277.81
2022-11-22T16:23:09.777Z,99282.75
2022-11-22T16:25:37.628Z,99285.16
2022-11-22T16:28:26.022Z,99291.50
2022-11-22T16:30:59.059Z,99292.75
2022-11-22T16:33:25.750Z,99292.28
2022-11-22T16:35:57.746Z,99290.03
2022-11-22T16:38:25.234Z,99281.53
2022-11-22T16:40:54.049Z,99287.22
2022-11-22T16:43:22.993Z,99288.25
2022-11-22T16:45:50.477Z,99301.75
2022-11-22T16:48:31.973Z,99297.56
2022-11-22T16:51:03.678Z,99289.88
2022-11-22T16:53:39.898Z,99295.56
2022-11-22T16:56:07.117Z,99299.50
2022-11-22T16:58:33.688Z,99298.72
2022-11-22T17:01:00.886Z,99293.59
2022-11-22T17:03:33.636Z,99298.94
2022-11-22T17:06:00.110Z,99306.28
2022-11-22T17:08:26.514Z,99312.19
2022-11-22T17:10:53.024Z,99301.44
2022-11-22T17:13:25.513Z,99311.88
2022-11-22T17:15:56.159Z,99304.88
2022-11-22T17:18:22.902Z,99317.31
2022-11-22T17:20:49.687Z,99319.56
2022-11-22T17:23:38.232Z,99316.41
2022-11-22T17:26:05.519Z,99321.50
2022-11-22T17:28:31.937Z,99325.13
2022-11-22T17:30:59.515Z,99324.38
2022-11-22T17:33:26.250Z,99323.75
2022-11-22T17:35:53.139Z,99337.97
2022-11-22T17:38:19.795Z,99335.94
2022-11-22T17:40:46.269Z,99327.16
2022-11-22T17:43:13.818Z,99318.03
2022-11-22T17:45:44.133Z,99325.44
2022-11-22T17:48:12.115Z,99332.59
2022-11-22T17:50:39.429Z,99332.16
2022-11-22T17:53:06.633Z,99336.28
2022-11-22T17:55:48.299Z,99332.44
2022-11-22T17:58:19.537Z,99346.78
2022-11-22T18:00:45.925Z,99358.84
2022-11-22T18:03:12.396Z,99356.31
2022-11-22T18:05:38.830Z,99366.13
2022-11-22T18:08:06.771Z,99366.19
2022-11-22T18:10:33.394Z,99367.75
2022-11-22T18:13:20.418Z,99374.25
2022-11-22T18:15:49.469Z,99363.09
2022-11-22T18:18:40.475Z,99376.28
2022-11-22T18:21:02.587Z,99372.03
2022-11-22T18:23:32.899Z,99373.13
2022-11-22T18:26:23.803Z,99385.31
2022-11-22T18:29:02.472Z,99393.16
2022-11-22T18:31:51.219Z,99389.50
2022-11-22T18:34:18.448Z,99403.06
2022-11-22T18:42:24.341Z,99384.91
2022-11-22T18:44:50.793Z,99385.78
2022-11-22T18:47:17.337Z,99386.72
2022-11-22T18:49:43.923Z,99384.69
2022-11-22T18:52:13.369Z,99377.19
2022-11-22T18:54:42.964Z,99374.47
2022-11-22T18:57:09.370Z,99382.41
2022-11-22T18:59:35.848Z,99380.41
2022-11-22T19:02:02.347Z,99383.13
2022-11-22T19:04:30.040Z,99383.69
2022-11-22T19:06:56.709Z,99387.63
2022-11-22T19:09:23.117Z,99375.19
2022-11-22T19:11:52.588Z,99372.38
2022-11-22T19:14:20.768Z,99379.31
2022-11-22T19:16:47.199Z,99384.09
2022-11-22T19:19:13.777Z,99384.81
2022-11-22T19:21:40.333Z,99391.59
2022-11-22T19:24:06.907Z,99395.06
2022-11-22T19:26:33.330Z,99397.19
2022-11-22T19:29:00.114Z,99391.00
2022-11-22T19:31:29.109Z,99379.69
2022-11-22T19:33:55.913Z,99378.56
2022-11-22T19:36:31.850Z,99378.88
2022-11-22T19:38:59.750Z,99380.56
2022-11-22T19:41:26.446Z,99384.63
2022-11-22T19:43:53.058Z,99388.41
2022-11-22T19:46:19.952Z,99386.81
2022-11-22T19:48:53.847Z,99386.31
2022-11-22T19:51:20.968Z,99389.31
2022-11-22T19:53:47.971Z,99384.34
2022-11-22T19:56:16.945Z,99381.13
2022-11-22T19:58:48.797Z,99391.84
2022-11-22T20:01:16.601Z,99389.97
2022-11-22T20:03:44.632Z,99384.56
2022-11-22T20:06:13.960Z,99385.66
2022-11-22T20:08:40.836Z,99389.19
2022-11-22T20:11:13.230Z,99378.22
2022-11-22T20:13:42.566Z,99379.44
2022-11-22T20:16:24.203Z,99378.09
2022-11-22T20:18:54.454Z,99385.78
2022-11-22T20:21:22.493Z,99384.59
2022-11-22T20:23:50.313Z,99389.56
2022-11-22T20:26:17.699Z,99387.63
2022-11-22T20:28:45.617Z,99386.81
2022-11-22T20:31:17.033Z,99398.16
2022-11-22T20:33:46.396Z,99399.00
2022-11-22T20:36:15.356Z,99396.75
2022-11-22T20:38:45.505Z,99397.88
2022-11-22T20:41:13.821Z,99399.00
2022-11-22T20:43:40.793Z,99391.66
2022-11-22T20:46:14.915Z,99397.66
2022-11-22T20:48:44.319Z,99387.22
2022-11-22T20:51:14.175Z,99400.50
2022-11-22T20:53:41.805Z,99390.28
2022-11-22T20:56:08.961Z,99382.41
2022-11-22T20:58:36.107Z,99379.44
2022-11-22T21:01:12.706Z,99383.41
2022-11-22T21:03:39.308Z,99377.22
2022-11-22T21:06:05.978Z,99390.91
2022-11-22T21:08:33.169Z,99389.91
2022-11-22T21:11:11.715Z,99397.69
2022-11-22T21:13:38.408Z,99397.97
2022-11-22T21:16:22.390Z,99397.63
2022-11-22T21:18:52.926Z,99394.88
2022-11-22T21:21:22.786Z,99403.34
2022-11-22T21:23:51.118Z,99401.53
2022-11-22T21:26:18.279Z,99403.97
2022-11-22T21:28:44.768Z,99403.84
2022-11-22T21:31:11.189Z,99418.72
2022-11-22T21:33:38.065Z,99408.56
2022-11-22T21:36:06.412Z,99409.25
2022-11-22T21:38:34.784Z,99411.78
2022-11-22T21:41:24.202Z,99411.19
2022-11-22T21:43:51.001Z,99413.69
2022-11-22T21:46:18.319Z,99417.09
2022-11-22T21:48:44.771Z,99418.53
2022-11-22T21:51:11.198Z,99413.78
2022-11-22T21:53:37.768Z,99427.28
2022-11-22T21:56:04.328Z,99423.88
2022-11-22T21:58:31.050Z,99424.34
2022-11-22T22:01:01.592Z,99430.38
2022-11-22T22:03:29.733Z,99421.41
2022-11-22T22:05:57.433Z,99434.56
2022-11-22T22:08:26.471Z,99430.88
2022-11-22T22:10:52.940Z,99416.59
2022-11-22T22:13:19.584Z,99418.44
2022-11-22T22:15:47.434Z,99412.50
2022-11-22T22:18:14.310Z,99411.53
2022-11-22T22:20:40.773Z,99411.25
2022-11-22T22:23:07.220Z,99413.44
2022-11-22T22:25:33.654Z,99411.75
2022-11-22T22:28:00.052Z,99416.84
2022-11-22T22:30:26.511Z,99410.59
2022-11-22T22:32:52.914Z,99412.31
2022-11-22T22:35:19.608Z,99402.06
2022-11-22T22:37:46.009Z,99411.78
2022-11-22T22:40:12.597Z,99405.50
2022-11-22T22:42:39.043Z,99401.47
2022-11-22T22:45:06.190Z,99399.00
2022-11-22T22:47:32.619Z,99411.09
2022-11-22T22:49:59.095Z,99409.25
2022-11-22T22:52:25.658Z,99406.22
2022-11-22T22:54:52.054Z,99426.09
2022-11-22T22:57:18.450Z,99414.31
2022-11-22T22:59:44.879Z,99426.97
2022-11-22T23:02:11.291Z,99429.19
2022-11-22T23:04:40.119Z,99428.91
2022-11-22T23:07:06.911Z,99423.22
2022-11-22T23:09:33.555Z,99428.03
2022-11-22T23:12:12.133Z,99428.63
2022-11-22T23:14:39.977Z,99425.19
2022-11-22T23:17:07.759Z,99425.13
2022-11-22T23:19:34.555Z,99419.75
2022-11-22T23:22:01.142Z,99425.78
2022-11-22T23:24:30.730Z,99430.50
2022-11-22T23:26:57.543Z,99420.56
2022-11-22T23:29:23.956Z,99420.06
2022-11-22T23:31:50.353Z,99419.28
2022-11-22T23:34:16.791Z,99409.94
2022-11-22T23:36:43.196Z,99414.06
2022-11-22T23:39:09.957Z,99401.91
2022-11-22T23:41:36.418Z,99406.16
2022-11-22T23:44:02.932Z,99394.84
2022-11-22T23:46:29.412Z,99398.81
2022-11-22T23:48:58.540Z,99405.00
2022-11-22T23:51:26.333Z,99402.56
2022-11-22T23:54:04.997Z,99399.16
2022-11-22T23:56:33.524Z,99398.69
2022-11-22T23:59:00.795Z,99393.06
